• Join FlightAware (Why Join?)
  • Login
  • US Flag 
Gobble Gobble! 
08:39PM EST


 

Airport Tracker/Info


-or-


 

Live Flight TrackerFlight Track Log ✈ EJA951 ✈ 02-Nov-2013 ✈ KOMA - KDWH

Flight Track Log - Related Links

Times and Time Zones

All times are in EDT time to prevent confusion due to time zone crossing. See the EJA951 flight status page for this flight to view local times or setup timezone preferences in your user account.

Time Position Orientation Groundspeed Altitude Reporting Facility
EDT Latitude Longitude Course Direction KTS MPH feet Rate Location/Type
11:18AM 41.3128 -95.9064 323° Northwest 172 198 1,600  Level Minneapolis Center
11:19AM 41.3375 -95.9314 323° Northwest 182 209 4,100 3,480 Climbing Minneapolis Center
11:20AM 41.3531 -95.9653 301° West 238 274 6,300 3,300 Climbing Minneapolis Center
11:20AM 41.3292 -95.9961 224° Southwest 272 313 7,500 3,720 Climbing Minneapolis Center
11:21AM 41.2764 -95.9944 179° South 301 346 10,100 2,700 Climbing Minneapolis Center
11:22AM 41.1875 -96.0233 194° South 320 368 12,400 1,920 Climbing Minneapolis Center
11:23AM 41.0847 -96.0597 195° South 359 413 14,100 1,740 Climbing Minneapolis Center
11:24AM 40.9697 -96.0958 193° South 402 463 16,000 1,860 Climbing Minneapolis Center
11:25AM 40.8256 -96.1325 191° South 430 495 18,000 1,920 Climbing Minneapolis Center
11:26AM 40.6972 -96.1522 187° South 451 519 20,000 1,860 Climbing Minneapolis Center
11:27AM 40.5669 -96.1747 187° South 466 536 21,900 1,620 Climbing Minneapolis Center
11:28AM 40.4311 -96.1967 187° South 480 552 23,400 1,680 Climbing Minneapolis Center
11:29AM 40.2903 -96.2211 188° South 499 574 25,400 1,740 Climbing Minneapolis Center
11:30AM 40.1478 -96.2461 188° South 511 588 27,000 1,440 Climbing Minneapolis Center
11:31AM 40.0014 -96.2697 187° South 521 600 28,400 1,020 Climbing Minneapolis Center
11:32AM 39.8519 -96.2942 187° South 533 613 29,200 1,080 Climbing Minneapolis Center
11:33AM 39.6689 -96.3247 187° South 548 631 30,700 1,560 Climbing Minneapolis Center
11:34AM 39.5194 -96.3492 187° South 546 628 32,500 1,800 Climbing Minneapolis Center
11:35AM 39.3733 -96.3753 188° South 535 616 34,400 1,620 Climbing Minneapolis Center
11:36AM 39.2306 -96.3972 187° South 524 603 35,900 1,440 Climbing Minneapolis Center
11:37AM 39.0894 -96.4219 188° South 515 593 37,400 1,440 Climbing Minneapolis Center
11:39AM 38.8744 -96.4575 187° South 500 575 39,500 1,020 Climbing Kansas City Center
11:40AM 38.7431 -96.4781 187° South 497 572 40,000 240 Climbing Kansas City Center
11:41AM 38.5814 -96.5031 187° South 517 595 40,000  Level Kansas City Center
11:42AM 38.4356 -96.5278 188° South 530 610 40,000  Level Kansas City Center
11:43AM 38.2864 -96.5508 187° South 537 618 40,000  Level Kansas City Center
11:44AM 38.1367 -96.5747 187° South 539 620 40,000  Level Kansas City Center
11:45AM 37.9864 -96.5983 187° South 540 621 40,000  Level Kansas City Center
11:46AM 37.8367 -96.6222 187° South 538 619 40,000  Level Kansas City Center
11:47AM 37.6872 -96.6458 187° South 538 619 40,000  Level Kansas City Center
11:48AM 37.5106 -96.6722 187° South 532 612 40,000  Level Kansas City Center
11:49AM 37.3611 -96.6953 187° South 534 615 40,000  Level Kansas City Center
11:50AM 37.2092 -96.7203 187° South 542 624 40,000  Level Kansas City Center
11:51AM 37.0711 -96.7431 187° South 544 626 40,000  Level Kansas City Center
11:52AM 36.9072 -96.7689 187° South 545 627 40,000  Level Kansas City Center
11:53AM 36.7483 -96.7914 186° South 528 608 40,000  Level Kansas City Center
11:54AM 36.5997 -96.8153 187° South 534 615 40,000  Level Kansas City Center
11:55AM 36.4483 -96.8381 187° South 536 617 40,000  Level Kansas City Center
11:56AM 36.3008 -96.8600 187° South 534 615 40,000  Level Kansas City Center
11:57AM 36.1536 -96.8825 187° South 532 612 40,000  Level Kansas City Center
11:58AM 36.0058 -96.9039 187° South 533 613 40,000  Level Kansas City Center
11:59AM 35.8589 -96.9258 187° South 532 612 40,000  Level Kansas City Center
12:00PM 35.6811 -96.9517 187° South 533 613 40,000  Level Kansas City Center
12:01PM 35.5322 -96.9731 187° South 534 615 40,000  Level Kansas City Center
12:02PM 35.3806 -96.9761 181° South 536 617 40,000  Level Kansas City Center
12:03PM 35.2281 -96.9714 179° South 540 621 40,000  Level Kansas City Center
12:04PM 35.0769 -96.9675 179° South 539 620 40,000  Level Kansas City Center
12:05PM 34.9267 -96.9633 179° South 537 618 40,000  Level Kansas City Center
12:06PM 34.7764 -96.9592 179° South 538 619 40,000  Level Kansas City Center
12:07PM 34.6267 -96.9536 178° South 537 618 40,000  Level Kansas City Center
12:08PM 34.4769 -96.9497 179° South 537 618 40,000  Level Kansas City Center
12:10PM 34.2664 -96.9461 179° South 537 618 40,000  Level Fort Worth Center
12:11PM 34.1183 -96.9419 179° South 537 618 40,000  Level Fort Worth Center
12:12PM 33.9742 -96.9375 179° South 531 611 40,000  Level Fort Worth Center
12:13PM 33.8239 -96.9308 178° South 536 617 40,000  Level Fort Worth Center
12:14PM 33.6758 -96.9267 179° South 536 617 40,000  Level Fort Worth Center
12:15PM 33.5233 -96.9225 179° South 536 617 40,000  Level Fort Worth Center
12:16PM 33.3772 -96.9183 179° South 536 617 40,000 -360 Level Fort Worth Center
12:17PM 33.2333 -96.9514 191° South 523 602 39,300 -1,200 Descending Fort Worth Center
12:18PM 33.1272 -97.0586 220° Southwest 488 562 37,600 -1,980 Descending Fort Worth Center
12:19PM 32.9939 -97.1311 205° Southwest 518 596 35,400 -2,040 Descending Fort Worth Center
12:20PM 32.8433 -97.1217 177° South 525 604 33,600 -1,740 Descending Fort Worth Center
12:21PM 32.6847 -97.0875 170° South 533 613 32,000 -1,740 Descending Fort Worth Center
12:22PM 32.5344 -97.0511 168° South 556 640 30,200 -1,920 Descending Fort Worth Center
12:23PM 32.3858 -96.9756 157° South 562 647 28,200 -1,140 Descending Fort Worth Center
12:24PM 32.2436 -96.9000 156° South 567 652 28,000 -120 Descending Fort Worth Center
12:25PM 32.1033 -96.8247 156° South 562 647 28,000  Level Fort Worth Center
12:26PM 31.9653 -96.7497 155° Southeast 557 641 28,000  Level Fort Worth Center
12:27PM 31.8064 -96.6647 156° South 548 631 28,000  Level Houston Center
12:28PM 31.6422 -96.5781 156° South 546 628 28,000  Level Houston Center
12:29PM 31.5017 -96.5064 157° South 545 627 28,000 -420 Level Houston Center
12:30PM 31.3572 -96.4428 159° South 545 627 27,200 -1,140 Descending Houston Center
12:31PM 31.2175 -96.3536 151° Southeast 559 643 25,700 -1,500 Descending Houston Center
12:32PM 31.0817 -96.2661 151° Southeast 554 638 24,100 -2,640 Descending Houston Center
12:33PM 30.9539 -96.1825 151° Southeast 536 617 20,300 -3,660 Descending Houston Center
12:34PM 30.8403 -96.1094 151° Southeast 483 556 16,700 -3,060 Descending Houston Center
12:35PM 30.7314 -96.0408 152° Southeast 426 490 14,100 -2,580 Descending Houston Center
12:36PM 30.6822 -96.0111 153° Southeast 366 421 12,800 -1,860 Descending Houston Center
12:36PM 30.6447 -95.9850 149° Southeast 373 429 12,200 -900 Descending Houston Center
12:37PM 30.6025 -95.9622 155° Southeast 364 419 12,000 -1,020 Descending Houston Center
12:37PM 30.5531 -95.9294 150° Southeast 368 423 11,200 -1,320 Descending Houston Center
12:38PM 30.5225 -95.9131 155° Southeast 355 409 10,800 -1,500 Descending Houston Center
12:38PM 30.4681 -95.8797 152° Southeast 348 400 9,700 -1,620 Descending Houston Center
12:39PM 30.3939 -95.8200 145° Southeast 327 376 7,900 -1,740 Descending Houston Center
12:40PM 30.3256 -95.7639 145° Southeast 307 353 6,200 -1,920 Descending Houston Center
12:41PM 30.2936 -95.7411 148° Southeast 299 344 5,500 -1,920 Descending Houston Center
12:41PM 30.2444 -95.6997 144° Southeast 297 342 4,300 -1,020 Descending Houston Center
12:42PM 30.1850 -95.6517 145° Southeast 266 306 3,700 -840 Descending Houston Center
12:43PM 30.1714 -95.6419 148° Southeast 224 258 3,300 -1,380 Descending Houston Center
12:44PM 30.1122 -95.6153 159° South 220 253 2,000 -720 Descending Houston Center
12:44PM 30.0742 -95.6125 176° South 217 250 2,000  Level Houston Center
12:45PM 30.0550 -95.6097 173° South 198 228 2,000 -240 Level Houston Center
12:45PM 30.0200 -95.6039 172° South 205 236 1,800 -360 Descending Houston Center
12:46PM 30.0086 -95.5839 123° Southeast 164 189 1,600 -600 Descending Houston Center
12:47PM 30.0100 -95.5583 86° East 178 205 1,200 -660 Descending Houston Center
12:47PM 30.0164 -95.5517 42° Northeast 137 158 1,000 -540 Descending Houston Center
12:48PM 30.0444 -95.5536 357° North 158 182 700 -360 Descending Houston Center
12:50PM 30.0500 -95.5500 221° Southwest  Level FlightAware Approximate